sensor_id;sensor_type;location;lat;lon;timestamp;P1;durP1;ratioP1;P2;durP2;ratioP2
11042;SDS011;5574;48.786;10.120;2022-12-18T00:02:00;27.53;;;17.33;;
11042;SDS011;5574;48.786;10.120;2022-12-18T00:04:27;26.03;;;16.40;;
11042;SDS011;5574;48.786;10.120;2022-12-18T00:06:55;24.10;;;15.03;;
11042;SDS011;5574;48.786;10.120;2022-12-18T00:09:22;21.30;;;13.77;;
11042;SDS011;5574;48.786;10.120;2022-12-18T00:11:49;24.50;;;14.97;;
11042;SDS011;5574;48.786;10.120;2022-12-18T00:14:16;21.30;;;14.87;;
11042;SDS011;5574;48.786;10.120;2022-12-18T00:16:43;20.77;;;14.17;;
11042;SDS011;5574;48.786;10.120;2022-12-18T00:19:12;26.73;;;16.00;;
11042;SDS011;5574;48.786;10.120;2022-12-18T00:21:40;23.00;;;14.30;;
11042;SDS011;5574;48.786;10.120;2022-12-18T00:24:09;21.80;;;14.00;;
11042;SDS011;5574;48.786;10.120;2022-12-18T00:26:36;20.97;;;13.40;;
11042;SDS011;5574;48.786;10.120;2022-12-18T00:29:06;19.30;;;13.17;;
11042;SDS011;5574;48.786;10.120;2022-12-18T00:31:36;23.03;;;14.97;;
11042;SDS011;5574;48.786;10.120;2022-12-18T00:34:03;22.27;;;14.87;;
11042;SDS011;5574;48.786;10.120;2022-12-18T00:36:31;23.53;;;14.53;;
11042;SDS011;5574;48.786;10.120;2022-12-18T00:39:00;19.83;;;14.63;;
11042;SDS011;5574;48.786;10.120;2022-12-18T00:41:30;23.53;;;15.17;;
11042;SDS011;5574;48.786;10.120;2022-12-18T00:44:15;23.53;;;14.00;;
11042;SDS011;5574;48.786;10.120;2022-12-18T00:46:43;20.33;;;13.73;;
11042;SDS011;5574;48.786;10.120;2022-12-18T00:49:11;22.00;;;14.47;;
11042;SDS011;5574;48.786;10.120;2022-12-18T00:51:38;22.80;;;14.30;;
11042;SDS011;5574;48.786;10.120;2022-12-18T00:54:05;20.57;;;13.50;;
11042;SDS011;5574;48.786;10.120;2022-12-18T00:56:33;20.00;;;13.60;;
11042;SDS011;5574;48.786;10.120;2022-12-18T00:59:01;21.40;;;13.77;;
11042;SDS011;5574;48.786;10.120;2022-12-18T01:01:28;20.40;;;14.03;;
11042;SDS011;5574;48.786;10.120;2022-12-18T01:03:54;22.03;;;14.67;;
11042;SDS011;5574;48.786;10.120;2022-12-18T01:06:21;19.70;;;13.57;;
11042;SDS011;5574;48.786;10.120;2022-12-18T01:08:48;20.17;;;13.80;;
11042;SDS011;5574;48.786;10.120;2022-12-18T01:11:16;21.33;;;14.33;;
11042;SDS011;5574;48.786;10.120;2022-12-18T01:13:45;22.20;;;14.13;;
11042;SDS011;5574;48.786;10.120;2022-12-18T01:16:12;20.73;;;13.07;;
11042;SDS011;5574;48.786;10.120;2022-12-18T01:18:39;21.13;;;13.63;;
11042;SDS011;5574;48.786;10.120;2022-12-18T01:21:07;22.77;;;13.87;;
11042;SDS011;5574;48.786;10.120;2022-12-18T01:23:34;18.80;;;12.97;;
11042;SDS011;5574;48.786;10.120;2022-12-18T01:26:04;21.80;;;13.47;;
11042;SDS011;5574;48.786;10.120;2022-12-18T01:28:31;19.43;;;12.50;;
11042;SDS011;5574;48.786;10.120;2022-12-18T01:31:09;21.43;;;13.00;;
11042;SDS011;5574;48.786;10.120;2022-12-18T01:33:46;17.33;;;12.13;;
11042;SDS011;5574;48.786;10.120;2022-12-18T01:36:16;19.57;;;12.67;;
11042;SDS011;5574;48.786;10.120;2022-12-18T01:38:45;23.77;;;13.97;;
11042;SDS011;5574;48.786;10.120;2022-12-18T01:41:13;19.10;;;12.20;;
11042;SDS011;5574;48.786;10.120;2022-12-18T01:43:46;22.00;;;14.10;;
11042;SDS011;5574;48.786;10.120;2022-12-18T01:46:16;18.70;;;12.33;;
11042;SDS011;5574;48.786;10.120;2022-12-18T01:48:44;18.97;;;12.17;;
11042;SDS011;5574;48.786;10.120;2022-12-18T01:51:14;17.43;;;12.07;;
11042;SDS011;5574;48.786;10.120;2022-12-18T01:53:42;16.50;;;11.40;;
11042;SDS011;5574;48.786;10.120;2022-12-18T01:56:12;17.30;;;11.80;;
11042;SDS011;5574;48.786;10.120;2022-12-18T01:58:43;18.03;;;12.23;;
11042;SDS011;5574;48.786;10.120;2022-12-18T02:01:14;15.90;;;10.33;;
11042;SDS011;5574;48.786;10.120;2022-12-18T02:03:43;15.53;;;10.07;;
11042;SDS011;5574;48.786;10.120;2022-12-18T02:06:12;14.37;;;10.20;;
11042;SDS011;5574;48.786;10.120;2022-12-18T02:08:45;16.23;;;11.07;;
11042;SDS011;5574;48.786;10.120;2022-12-18T02:11:24;14.93;;;8.93;;
11042;SDS011;5574;48.786;10.120;2022-12-18T02:14:04;14.80;;;11.07;;
11042;SDS011;5574;48.786;10.120;2022-12-18T02:16:43;14.40;;;10.20;;
11042;SDS011;5574;48.786;10.120;2022-12-18T02:19:18;15.53;;;10.10;;
11042;SDS011;5574;48.786;10.120;2022-12-18T02:21:55;14.20;;;9.50;;
11042;SDS011;5574;48.786;10.120;2022-12-18T02:24:33;14.60;;;10.70;;
11042;SDS011;5574;48.786;10.120;2022-12-18T02:27:08;15.13;;;10.17;;
11042;SDS011;5574;48.786;10.120;2022-12-18T02:29:37;13.93;;;10.03;;
11042;SDS011;5574;48.786;10.120;2022-12-18T02:32:08;14.43;;;9.23;;
11042;SDS011;5574;48.786;10.120;2022-12-18T02:34:39;14.93;;;9.87;;
11042;SDS011;5574;48.786;10.120;2022-12-18T02:37:07;16.73;;;11.03;;
11042;SDS011;5574;48.786;10.120;2022-12-18T02:39:38;15.93;;;9.80;;
11042;SDS011;5574;48.786;10.120;2022-12-18T02:42:09;16.30;;;10.00;;
11042;SDS011;5574;48.786;10.120;2022-12-18T02:44:41;14.33;;;9.50;;
11042;SDS011;5574;48.786;10.120;2022-12-18T02:47:09;15.87;;;9.97;;
11042;SDS011;5574;48.786;10.120;2022-12-18T02:49:39;15.53;;;9.63;;
11042;SDS011;5574;48.786;10.120;2022-12-18T02:52:12;14.60;;;9.77;;
11042;SDS011;5574;48.786;10.120;2022-12-18T02:54:47;14.47;;;9.80;;
11042;SDS011;5574;48.786;10.120;2022-12-18T02:57:23;11.87;;;8.73;;
11042;SDS011;5574;48.786;10.120;2022-12-18T02:59:58;15.00;;;9.63;;
11042;SDS011;5574;48.786;10.120;2022-12-18T03:02:30;14.10;;;10.17;;
11042;SDS011;5574;48.786;10.120;2022-12-18T03:05:05;14.93;;;10.37;;
11042;SDS011;5574;48.786;10.120;2022-12-18T03:07:37;15.43;;;9.67;;
11042;SDS011;5574;48.786;10.120;2022-12-18T03:10:07;12.53;;;8.63;;
11042;SDS011;5574;48.786;10.120;2022-12-18T03:12:40;14.40;;;9.20;;
11042;SDS011;5574;48.786;10.120;2022-12-18T03:15:13;12.50;;;8.47;;
11042;SDS011;5574;48.786;10.120;2022-12-18T03:17:45;14.50;;;9.67;;
11042;SDS011;5574;48.786;10.120;2022-12-18T03:20:18;14.93;;;8.77;;
11042;SDS011;5574;48.786;10.120;2022-12-18T03:22:53;13.03;;;9.27;;
11042;SDS011;5574;48.786;10.120;2022-12-18T03:25:32;13.50;;;8.63;;
11042;SDS011;5574;48.786;10.120;2022-12-18T03:28:02;12.47;;;7.80;;
11042;SDS011;5574;48.786;10.120;2022-12-18T03:30:33;12.33;;;8.77;;
11042;SDS011;5574;48.786;10.120;2022-12-18T03:33:05;16.63;;;9.83;;
11042;SDS011;5574;48.786;10.120;2022-12-18T03:35:35;15.90;;;9.47;;
11042;SDS011;5574;48.786;10.120;2022-12-18T03:38:05;12.97;;;8.03;;
11042;SDS011;5574;48.786;10.120;2022-12-18T03:40:34;16.50;;;9.20;;
11042;SDS011;5574;48.786;10.120;2022-12-18T03:43:08;15.37;;;9.40;;
11042;SDS011;5574;48.786;10.120;2022-12-18T03:45:41;16.10;;;9.73;;
11042;SDS011;5574;48.786;10.120;2022-12-18T03:48:16;13.77;;;9.07;;
11042;SDS011;5574;48.786;10.120;2022-12-18T03:50:49;14.63;;;8.97;;
11042;SDS011;5574;48.786;10.120;2022-12-18T03:53:25;14.17;;;8.80;;
11042;SDS011;5574;48.786;10.120;2022-12-18T03:55:58;16.83;;;9.83;;
11042;SDS011;5574;48.786;10.120;2022-12-18T03:58:28;16.10;;;9.23;;
11042;SDS011;5574;48.786;10.120;2022-12-18T04:00:58;15.10;;;8.70;;
11042;SDS011;5574;48.786;10.120;2022-12-18T04:03:28;12.53;;;6.80;;
11042;SDS011;5574;48.786;10.120;2022-12-18T04:05:57;15.70;;;9.60;;
11042;SDS011;5574;48.786;10.120;2022-12-18T04:08:26;15.83;;;9.37;;
11042;SDS011;5574;48.786;10.120;2022-12-18T04:10:54;15.97;;;10.17;;
11042;SDS011;5574;48.786;10.120;2022-12-18T04:13:24;15.13;;;10.03;;
11042;SDS011;5574;48.786;10.120;2022-12-18T04:15:55;15.00;;;9.63;;
11042;SDS011;5574;48.786;10.120;2022-12-18T04:18:22;13.97;;;9.07;;
11042;SDS011;5574;48.786;10.120;2022-12-18T04:20:48;13.10;;;7.70;;
11042;SDS011;5574;48.786;10.120;2022-12-18T04:23:15;17.17;;;9.80;;
11042;SDS011;5574;48.786;10.120;2022-12-18T04:25:42;13.10;;;8.57;;
11042;SDS011;5574;48.786;10.120;2022-12-18T04:28:09;15.37;;;9.63;;
11042;SDS011;5574;48.786;10.120;2022-12-18T04:30:35;16.30;;;9.33;;
11042;SDS011;5574;48.786;10.120;2022-12-18T04:33:05;13.90;;;8.30;;
11042;SDS011;5574;48.786;10.120;2022-12-18T04:35:35;15.40;;;9.30;;
11042;SDS011;5574;48.786;10.120;2022-12-18T04:38:01;20.30;;;13.82;;
11042;SDS011;5574;48.786;10.120;2022-12-18T04:40:28;16.60;;;10.27;;
11042;SDS011;5574;48.786;10.120;2022-12-18T04:42:55;13.50;;;8.87;;
11042;SDS011;5574;48.786;10.120;2022-12-18T04:45:21;15.50;;;9.33;;
11042;SDS011;5574;48.786;10.120;2022-12-18T04:47:48;17.20;;;9.60;;
11042;SDS011;5574;48.786;10.120;2022-12-18T04:50:16;16.40;;;9.27;;
11042;SDS011;5574;48.786;10.120;2022-12-18T04:52:43;13.47;;;8.87;;
11042;SDS011;5574;48.786;10.120;2022-12-18T04:55:10;16.10;;;9.33;;
11042;SDS011;5574;48.786;10.120;2022-12-18T04:57:37;14.07;;;8.93;;
11042;SDS011;5574;48.786;10.120;2022-12-18T05:00:05;14.00;;;8.63;;
11042;SDS011;5574;48.786;10.120;2022-12-18T05:02:34;13.37;;;8.73;;
11042;SDS011;5574;48.786;10.120;2022-12-18T05:05:01;16.20;;;8.90;;
11042;SDS011;5574;48.786;10.120;2022-12-18T05:07:29;15.63;;;8.73;;
11042;SDS011;5574;48.786;10.120;2022-12-18T05:09:56;14.23;;;8.57;;
11042;SDS011;5574;48.786;10.120;2022-12-18T05:12:23;13.50;;;8.43;;
11042;SDS011;5574;48.786;10.120;2022-12-18T05:14:49;13.97;;;8.60;;
11042;SDS011;5574;48.786;10.120;2022-12-18T05:17:16;16.57;;;9.03;;
11042;SDS011;5574;48.786;10.120;2022-12-18T05:19:43;15.43;;;9.17;;
11042;SDS011;5574;48.786;10.120;2022-12-18T05:22:10;16.80;;;10.13;;
11042;SDS011;5574;48.786;10.120;2022-12-18T05:24:38;17.23;;;9.67;;
11042;SDS011;5574;48.786;10.120;2022-12-18T05:27:04;13.87;;;8.20;;
11042;SDS011;5574;48.786;10.120;2022-12-18T05:29:31;16.93;;;9.43;;
11042;SDS011;5574;48.786;10.120;2022-12-18T05:31:58;16.17;;;9.47;;
11042;SDS011;5574;48.786;10.120;2022-12-18T05:34:25;14.40;;;8.57;;
11042;SDS011;5574;48.786;10.120;2022-12-18T05:36:52;15.97;;;8.57;;
11042;SDS011;5574;48.786;10.120;2022-12-18T05:39:18;18.33;;;10.50;;
11042;SDS011;5574;48.786;10.120;2022-12-18T05:41:46;13.80;;;9.13;;
11042;SDS011;5574;48.786;10.120;2022-12-18T05:44:13;16.43;;;9.23;;
11042;SDS011;5574;48.786;10.120;2022-12-18T05:46:40;17.33;;;10.17;;
11042;SDS011;5574;48.786;10.120;2022-12-18T05:49:06;15.90;;;9.50;;
11042;SDS011;5574;48.786;10.120;2022-12-18T05:51:34;14.63;;;9.73;;
11042;SDS011;5574;48.786;10.120;2022-12-18T05:54:00;14.03;;;9.27;;
11042;SDS011;5574;48.786;10.120;2022-12-18T05:56:27;15.13;;;8.73;;
11042;SDS011;5574;48.786;10.120;2022-12-18T05:58:55;14.80;;;9.23;;
11042;SDS011;5574;48.786;10.120;2022-12-18T06:01:23;15.57;;;9.00;;
11042;SDS011;5574;48.786;10.120;2022-12-18T06:03:51;13.27;;;8.60;;
11042;SDS011;5574;48.786;10.120;2022-12-18T06:06:18;14.83;;;8.37;;
11042;SDS011;5574;48.786;10.120;2022-12-18T06:08:47;14.37;;;7.70;;
11042;SDS011;5574;48.786;10.120;2022-12-18T06:11:16;14.77;;;8.73;;
11042;SDS011;5574;48.786;10.120;2022-12-18T06:13:44;15.83;;;9.07;;
11042;SDS011;5574;48.786;10.120;2022-12-18T06:16:12;14.07;;;8.60;;
11042;SDS011;5574;48.786;10.120;2022-12-18T06:18:39;14.50;;;9.83;;
11042;SDS011;5574;48.786;10.120;2022-12-18T06:21:06;13.77;;;8.20;;
11042;SDS011;5574;48.786;10.120;2022-12-18T06:23:33;16.93;;;9.07;;
11042;SDS011;5574;48.786;10.120;2022-12-18T06:26:03;16.17;;;9.40;;
11042;SDS011;5574;48.786;10.120;2022-12-18T06:28:30;16.97;;;9.10;;
11042;SDS011;5574;48.786;10.120;2022-12-18T06:30:57;15.83;;;10.00;;
11042;SDS011;5574;48.786;10.120;2022-12-18T06:33:26;16.83;;;10.57;;
11042;SDS011;5574;48.786;10.120;2022-12-18T06:35:54;14.57;;;8.63;;
11042;SDS011;5574;48.786;10.120;2022-12-18T06:38:21;18.20;;;10.43;;
11042;SDS011;5574;48.786;10.120;2022-12-18T06:40:47;18.93;;;9.93;;
11042;SDS011;5574;48.786;10.120;2022-12-18T06:43:14;19.00;;;10.27;;
11042;SDS011;5574;48.786;10.120;2022-12-18T06:45:41;18.67;;;9.90;;
11042;SDS011;5574;48.786;10.120;2022-12-18T06:48:08;17.60;;;10.47;;
11042;SDS011;5574;48.786;10.120;2022-12-18T06:50:36;18.07;;;9.60;;
11042;SDS011;5574;48.786;10.120;2022-12-18T06:53:03;16.13;;;10.23;;
11042;SDS011;5574;48.786;10.120;2022-12-18T06:55:29;16.07;;;9.80;;
11042;SDS011;5574;48.786;10.120;2022-12-18T06:57:56;17.20;;;10.80;;
11042;SDS011;5574;48.786;10.120;2022-12-18T07:00:23;17.03;;;9.83;;
11042;SDS011;5574;48.786;10.120;2022-12-18T07:02:49;19.83;;;11.50;;
11042;SDS011;5574;48.786;10.120;2022-12-18T07:05:16;20.20;;;11.77;;
11042;SDS011;5574;48.786;10.120;2022-12-18T07:07:44;18.70;;;10.37;;
11042;SDS011;5574;48.786;10.120;2022-12-18T07:10:11;17.23;;;10.40;;
11042;SDS011;5574;48.786;10.120;2022-12-18T07:12:37;19.03;;;9.80;;
11042;SDS011;5574;48.786;10.120;2022-12-18T07:15:05;17.10;;;10.63;;
11042;SDS011;5574;48.786;10.120;2022-12-18T07:17:32;20.13;;;11.57;;
11042;SDS011;5574;48.786;10.120;2022-12-18T07:19:59;17.37;;;10.67;;
11042;SDS011;5574;48.786;10.120;2022-12-18T07:22:26;22.73;;;10.63;;
11042;SDS011;5574;48.786;10.120;2022-12-18T07:24:54;20.87;;;10.27;;
11042;SDS011;5574;48.786;10.120;2022-12-18T07:27:21;19.17;;;10.37;;
11042;SDS011;5574;48.786;10.120;2022-12-18T07:29:48;16.53;;;10.83;;
11042;SDS011;5574;48.786;10.120;2022-12-18T07:32:15;19.30;;;11.63;;
11042;SDS011;5574;48.786;10.120;2022-12-18T07:34:41;19.13;;;11.67;;
11042;SDS011;5574;48.786;10.120;2022-12-18T07:37:08;21.80;;;11.13;;
11042;SDS011;5574;48.786;10.120;2022-12-18T07:39:35;16.07;;;10.03;;
11042;SDS011;5574;48.786;10.120;2022-12-18T07:42:03;21.67;;;12.67;;
11042;SDS011;5574;48.786;10.120;2022-12-18T07:44:47;19.37;;;10.87;;
11042;SDS011;5574;48.786;10.120;2022-12-18T07:47:14;20.30;;;11.77;;
11042;SDS011;5574;48.786;10.120;2022-12-18T07:49:40;19.77;;;11.13;;
11042;SDS011;5574;48.786;10.120;2022-12-18T07:52:07;22.33;;;12.53;;
11042;SDS011;5574;48.786;10.120;2022-12-18T07:54:34;18.87;;;10.07;;
11042;SDS011;5574;48.786;10.120;2022-12-18T07:57:01;18.70;;;11.67;;
11042;SDS011;5574;48.786;10.120;2022-12-18T07:59:29;19.60;;;11.73;;
11042;SDS011;5574;48.786;10.120;2022-12-18T08:01:55;15.07;;;8.53;;
11042;SDS011;5574;48.786;10.120;2022-12-18T08:04:23;22.20;;;11.67;;
11042;SDS011;5574;48.786;10.120;2022-12-18T08:06:50;19.43;;;10.43;;
11042;SDS011;5574;48.786;10.120;2022-12-18T08:09:17;9.90;;;6.87;;
11042;SDS011;5574;48.786;10.120;2022-12-18T08:11:44;18.97;;;11.33;;
11042;SDS011;5574;48.786;10.120;2022-12-18T08:14:10;15.57;;;7.77;;
11042;SDS011;5574;48.786;10.120;2022-12-18T08:16:38;20.50;;;11.97;;
11042;SDS011;5574;48.786;10.120;2022-12-18T08:19:05;20.10;;;10.93;;
11042;SDS011;5574;48.786;10.120;2022-12-18T08:21:32;18.30;;;10.13;;
11042;SDS011;5574;48.786;10.120;2022-12-18T08:23:59;17.70;;;11.13;;
11042;SDS011;5574;48.786;10.120;2022-12-18T08:26:27;18.70;;;11.50;;
11042;SDS011;5574;48.786;10.120;2022-12-18T08:28:55;17.37;;;9.87;;
11042;SDS011;5574;48.786;10.120;2022-12-18T08:31:23;17.83;;;10.13;;
11042;SDS011;5574;48.786;10.120;2022-12-18T08:33:52;18.63;;;10.87;;
11042;SDS011;5574;48.786;10.120;2022-12-18T08:36:19;16.50;;;10.43;;
11042;SDS011;5574;48.786;10.120;2022-12-18T08:38:46;19.20;;;10.90;;
11042;SDS011;5574;48.786;10.120;2022-12-18T08:41:14;18.07;;;10.57;;
11042;SDS011;5574;48.786;10.120;2022-12-18T08:43:41;19.27;;;11.67;;
11042;SDS011;5574;48.786;10.120;2022-12-18T08:46:27;18.60;;;10.40;;
11042;SDS011;5574;48.786;10.120;2022-12-18T08:49:00;17.87;;;10.77;;
11042;SDS011;5574;48.786;10.120;2022-12-18T08:51:27;17.80;;;11.70;;
11042;SDS011;5574;48.786;10.120;2022-12-18T08:53:54;10.37;;;5.70;;
11042;SDS011;5574;48.786;10.120;2022-12-18T08:56:21;18.80;;;11.20;;
11042;SDS011;5574;48.786;10.120;2022-12-18T08:58:50;19.37;;;10.40;;
11042;SDS011;5574;48.786;10.120;2022-12-18T09:01:17;18.07;;;10.60;;
11042;SDS011;5574;48.786;10.120;2022-12-18T09:03:44;21.00;;;12.37;;
11042;SDS011;5574;48.786;10.120;2022-12-18T09:06:14;19.70;;;11.23;;
11042;SDS011;5574;48.786;10.120;2022-12-18T09:08:42;16.83;;;11.63;;
11042;SDS011;5574;48.786;10.120;2022-12-18T09:11:11;17.20;;;11.53;;
11042;SDS011;5574;48.786;10.120;2022-12-18T09:13:40;18.43;;;11.97;;
11042;SDS011;5574;48.786;10.120;2022-12-18T09:16:07;19.50;;;12.30;;
11042;SDS011;5574;48.786;10.120;2022-12-18T09:18:34;18.30;;;11.67;;
11042;SDS011;5574;48.786;10.120;2022-12-18T09:21:06;19.07;;;12.23;;
11042;SDS011;5574;48.786;10.120;2022-12-18T09:23:36;19.97;;;12.77;;
11042;SDS011;5574;48.786;10.120;2022-12-18T09:26:03;17.57;;;11.37;;
11042;SDS011;5574;48.786;10.120;2022-12-18T09:28:29;20.03;;;11.87;;
11042;SDS011;5574;48.786;10.120;2022-12-18T09:30:56;20.23;;;12.23;;
11042;SDS011;5574;48.786;10.120;2022-12-18T09:33:23;18.03;;;11.77;;
11042;SDS011;5574;48.786;10.120;2022-12-18T09:35:50;17.93;;;12.17;;
11042;SDS011;5574;48.786;10.120;2022-12-18T09:38:17;19.60;;;12.33;;
11042;SDS011;5574;48.786;10.120;2022-12-18T09:40:47;20.87;;;11.97;;
11042;SDS011;5574;48.786;10.120;2022-12-18T09:43:16;21.07;;;12.70;;
11042;SDS011;5574;48.786;10.120;2022-12-18T09:45:45;20.03;;;12.30;;
11042;SDS011;5574;48.786;10.120;2022-12-18T09:48:18;17.03;;;10.77;;
11042;SDS011;5574;48.786;10.120;2022-12-18T09:50:47;19.37;;;10.20;;
11042;SDS011;5574;48.786;10.120;2022-12-18T09:53:17;9.73;;;5.27;;
11042;SDS011;5574;48.786;10.120;2022-12-18T09:55:49;18.67;;;11.13;;
11042;SDS011;5574;48.786;10.120;2022-12-18T09:58:19;13.67;;;8.37;;
11042;SDS011;5574;48.786;10.120;2022-12-18T10:00:51;17.83;;;10.80;;
11042;SDS011;5574;48.786;10.120;2022-12-18T10:03:18;17.33;;;10.37;;
11042;SDS011;5574;48.786;10.120;2022-12-18T10:05:47;16.37;;;10.10;;
11042;SDS011;5574;48.786;10.120;2022-12-18T10:08:23;15.87;;;10.57;;
11042;SDS011;5574;48.786;10.120;2022-12-18T10:11:00;19.93;;;11.27;;
11042;SDS011;5574;48.786;10.120;2022-12-18T10:13:38;18.53;;;11.43;;
11042;SDS011;5574;48.786;10.120;2022-12-18T10:16:12;16.00;;;9.70;;
11042;SDS011;5574;48.786;10.120;2022-12-18T10:18:47;22.17;;;10.90;;
11042;SDS011;5574;48.786;10.120;2022-12-18T10:21:28;16.60;;;10.83;;
11042;SDS011;5574;48.786;10.120;2022-12-18T10:24:00;16.77;;;10.53;;
11042;SDS011;5574;48.786;10.120;2022-12-18T10:26:40;16.00;;;10.60;;
11042;SDS011;5574;48.786;10.120;2022-12-18T10:29:08;16.33;;;10.77;;
11042;SDS011;5574;48.786;10.120;2022-12-18T10:31:36;18.37;;;10.50;;
11042;SDS011;5574;48.786;10.120;2022-12-18T10:34:03;16.73;;;10.17;;
11042;SDS011;5574;48.786;10.120;2022-12-18T10:36:30;17.93;;;11.00;;
11042;SDS011;5574;48.786;10.120;2022-12-18T10:38:58;17.77;;;10.83;;
11042;SDS011;5574;48.786;10.120;2022-12-18T10:41:42;21.77;;;12.20;;
11042;SDS011;5574;48.786;10.120;2022-12-18T10:44:10;8.40;;;5.37;;
11042;SDS011;5574;48.786;10.120;2022-12-18T10:46:45;14.37;;;8.50;;
11042;SDS011;5574;48.786;10.120;2022-12-18T10:49:23;18.77;;;10.30;;
11042;SDS011;5574;48.786;10.120;2022-12-18T10:52:03;21.47;;;12.23;;
11042;SDS011;5574;48.786;10.120;2022-12-18T10:54:37;12.63;;;7.70;;
11042;SDS011;5574;48.786;10.120;2022-12-18T10:57:15;19.10;;;11.10;;
11042;SDS011;5574;48.786;10.120;2022-12-18T10:59:49;15.40;;;9.03;;
11042;SDS011;5574;48.786;10.120;2022-12-18T11:02:24;17.13;;;10.33;;
11042;SDS011;5574;48.786;10.120;2022-12-18T11:04:52;14.37;;;8.47;;
11042;SDS011;5574;48.786;10.120;2022-12-18T11:07:19;15.57;;;9.47;;
11042;SDS011;5574;48.786;10.120;2022-12-18T11:09:46;15.70;;;10.50;;
11042;SDS011;5574;48.786;10.120;2022-12-18T11:12:28;15.03;;;10.20;;
11042;SDS011;5574;48.786;10.120;2022-12-18T11:14:55;16.40;;;10.50;;
11042;SDS011;5574;48.786;10.120;2022-12-18T11:17:25;16.87;;;10.93;;
11042;SDS011;5574;48.786;10.120;2022-12-18T11:19:55;17.43;;;9.93;;
11042;SDS011;5574;48.786;10.120;2022-12-18T11:22:24;15.57;;;9.80;;
11042;SDS011;5574;48.786;10.120;2022-12-18T11:24:54;16.87;;;10.50;;
11042;SDS011;5574;48.786;10.120;2022-12-18T11:27:23;17.67;;;10.20;;
11042;SDS011;5574;48.786;10.120;2022-12-18T11:29:51;16.27;;;10.50;;
11042;SDS011;5574;48.786;10.120;2022-12-18T11:32:29;16.13;;;11.07;;
11042;SDS011;5574;48.786;10.120;2022-12-18T11:35:02;17.53;;;9.73;;
11042;SDS011;5574;48.786;10.120;2022-12-18T11:37:36;23.17;;;12.93;;
11042;SDS011;5574;48.786;10.120;2022-12-18T11:40:09;18.93;;;11.60;;
11042;SDS011;5574;48.786;10.120;2022-12-18T11:42:41;15.53;;;9.93;;
11042;SDS011;5574;48.786;10.120;2022-12-18T11:47:58;17.23;;;10.23;;
11042;SDS011;5574;48.786;10.120;2022-12-18T11:50:32;16.27;;;10.23;;
11042;SDS011;5574;48.786;10.120;2022-12-18T11:53:10;17.23;;;10.17;;
11042;SDS011;5574;48.786;10.120;2022-12-18T11:55:39;16.97;;;11.43;;
11042;SDS011;5574;48.786;10.120;2022-12-18T11:58:15;16.70;;;10.60;;
11042;SDS011;5574;48.786;10.120;2022-12-18T12:00:53;17.10;;;10.97;;
11042;SDS011;5574;48.786;10.120;2022-12-18T12:06:30;16.60;;;9.37;;
11042;SDS011;5574;48.786;10.120;2022-12-18T12:09:05;22.57;;;11.50;;
11042;SDS011;5574;48.786;10.120;2022-12-18T12:11:42;33.57;;;11.80;;
11042;SDS011;5574;48.786;10.120;2022-12-18T12:14:29;21.00;;;11.17;;
11042;SDS011;5574;48.786;10.120;2022-12-18T12:17:11;55.17;;;14.07;;
11042;SDS011;5574;48.786;10.120;2022-12-18T12:19:49;17.27;;;11.03;;
11042;SDS011;5574;48.786;10.120;2022-12-18T12:22:24;17.83;;;7.70;;
11042;SDS011;5574;48.786;10.120;2022-12-18T12:24:59;12.87;;;7.47;;
11042;SDS011;5574;48.786;10.120;2022-12-18T12:27:40;12.17;;;6.80;;
11042;SDS011;5574;48.786;10.120;2022-12-18T12:30:16;15.13;;;9.73;;
11042;SDS011;5574;48.786;10.120;2022-12-18T12:32:52;24.13;;;10.53;;
11042;SDS011;5574;48.786;10.120;2022-12-18T12:35:30;10.93;;;6.87;;
11042;SDS011;5574;48.786;10.120;2022-12-18T12:38:11;27.07;;;9.37;;
11042;SDS011;5574;48.786;10.120;2022-12-18T12:40:42;52.27;;;12.10;;
11042;SDS011;5574;48.786;10.120;2022-12-18T12:43:22;13.70;;;7.33;;
11042;SDS011;5574;48.786;10.120;2022-12-18T12:45:53;17.93;;;10.10;;
11042;SDS011;5574;48.786;10.120;2022-12-18T12:48:35;13.57;;;7.23;;
11042;SDS011;5574;48.786;10.120;2022-12-18T12:51:08;19.80;;;11.23;;
11042;SDS011;5574;48.786;10.120;2022-12-18T12:53:38;17.10;;;10.77;;
11042;SDS011;5574;48.786;10.120;2022-12-18T12:56:06;51.40;;;13.90;;
11042;SDS011;5574;48.786;10.120;2022-12-18T12:58:37;23.70;;;11.93;;
11042;SDS011;5574;48.786;10.120;2022-12-18T13:01:13;19.23;;;11.13;;
11042;SDS011;5574;48.786;10.120;2022-12-18T13:03:54;21.67;;;12.40;;
11042;SDS011;5574;48.786;10.120;2022-12-18T13:06:31;21.37;;;13.07;;
11042;SDS011;5574;48.786;10.120;2022-12-18T13:09:04;17.67;;;10.97;;
11042;SDS011;5574;48.786;10.120;2022-12-18T13:11:32;17.93;;;11.40;;
11042;SDS011;5574;48.786;10.120;2022-12-18T13:14:21;20.00;;;11.63;;
11042;SDS011;5574;48.786;10.120;2022-12-18T13:16:50;17.93;;;10.97;;
11042;SDS011;5574;48.786;10.120;2022-12-18T13:19:22;18.67;;;11.17;;
11042;SDS011;5574;48.786;10.120;2022-12-18T13:21:52;18.17;;;11.33;;
11042;SDS011;5574;48.786;10.120;2022-12-18T13:24:22;20.63;;;11.83;;
11042;SDS011;5574;48.786;10.120;2022-12-18T13:26:51;19.03;;;11.33;;
11042;SDS011;5574;48.786;10.120;2022-12-18T13:32:18;17.20;;;10.90;;
11042;SDS011;5574;48.786;10.120;2022-12-18T13:34:48;18.90;;;11.90;;
11042;SDS011;5574;48.786;10.120;2022-12-18T13:37:39;21.70;;;11.50;;
11042;SDS011;5574;48.786;10.120;2022-12-18T13:43:24;20.70;;;11.73;;
11042;SDS011;5574;48.786;10.120;2022-12-18T13:46:03;18.80;;;11.20;;
11042;SDS011;5574;48.786;10.120;2022-12-18T13:48:33;18.80;;;11.67;;
11042;SDS011;5574;48.786;10.120;2022-12-18T13:51:05;19.47;;;11.70;;
11042;SDS011;5574;48.786;10.120;2022-12-18T13:53:36;19.33;;;11.60;;
11042;SDS011;5574;48.786;10.120;2022-12-18T13:56:05;17.77;;;11.23;;
11042;SDS011;5574;48.786;10.120;2022-12-18T13:58:32;19.37;;;12.10;;
11042;SDS011;5574;48.786;10.120;2022-12-18T14:00:59;20.03;;;12.03;;
11042;SDS011;5574;48.786;10.120;2022-12-18T14:03:29;27.27;;;13.50;;
11042;SDS011;5574;48.786;10.120;2022-12-18T14:05:58;19.30;;;11.50;;
11042;SDS011;5574;48.786;10.120;2022-12-18T14:08:32;19.00;;;11.17;;
11042;SDS011;5574;48.786;10.120;2022-12-18T14:11:01;21.23;;;12.10;;
11042;SDS011;5574;48.786;10.120;2022-12-18T14:13:31;19.80;;;11.90;;
11042;SDS011;5574;48.786;10.120;2022-12-18T14:16:02;19.97;;;12.47;;
11042;SDS011;5574;48.786;10.120;2022-12-18T14:18:32;21.13;;;12.93;;
11042;SDS011;5574;48.786;10.120;2022-12-18T14:21:04;19.83;;;12.27;;
11042;SDS011;5574;48.786;10.120;2022-12-18T14:23:34;20.80;;;11.97;;
11042;SDS011;5574;48.786;10.120;2022-12-18T14:26:03;18.13;;;12.10;;
11042;SDS011;5574;48.786;10.120;2022-12-18T14:28:46;19.37;;;12.43;;
11042;SDS011;5574;48.786;10.120;2022-12-18T14:31:16;18.67;;;11.47;;
11042;SDS011;5574;48.786;10.120;2022-12-18T14:33:44;17.90;;;10.63;;
11042;SDS011;5574;48.786;10.120;2022-12-18T14:36:13;20.33;;;12.33;;
11042;SDS011;5574;48.786;10.120;2022-12-18T14:38:47;18.17;;;11.27;;
11042;SDS011;5574;48.786;10.120;2022-12-18T14:41:15;19.10;;;12.67;;
11042;SDS011;5574;48.786;10.120;2022-12-18T14:43:43;20.33;;;13.13;;
11042;SDS011;5574;48.786;10.120;2022-12-18T14:46:25;18.93;;;10.30;;
11042;SDS011;5574;48.786;10.120;2022-12-18T14:48:54;19.37;;;12.10;;
11042;SDS011;5574;48.786;10.120;2022-12-18T14:51:22;19.50;;;12.33;;
11042;SDS011;5574;48.786;10.120;2022-12-18T14:53:56;18.23;;;10.90;;
11042;SDS011;5574;48.786;10.120;2022-12-18T14:56:25;20.53;;;12.83;;